createdAt,value
2022-07-29T00:16:05.581Z,15.42
2022-07-29T00:22:43.437Z,15.45
2022-07-29T00:25:11.257Z,15.39
2022-07-29T00:27:38.627Z,15.51
2022-07-29T00:31:10.692Z,15.51
2022-07-29T00:39:23.531Z,15.28
2022-07-29T00:46:41.861Z,15.10
2022-07-29T00:49:43.250Z,15.22
2022-07-29T00:52:50.125Z,15.06
2022-07-29T00:55:23.235Z,15.08
2022-07-29T00:58:00.722Z,15.02
2022-07-29T01:01:26.236Z,14.99
2022-07-29T01:04:25.259Z,14.94
2022-07-29T01:07:35.955Z,15.05
2022-07-29T01:10:24.323Z,14.94
2022-07-29T01:13:13.976Z,14.85
2022-07-29T01:16:22.935Z,14.75
2022-07-29T01:19:24.398Z,14.73
2022-07-29T01:22:46.933Z,14.78
2022-07-29T01:26:21.987Z,14.73
2022-07-29T01:29:38.644Z,14.78
2022-07-29T01:32:32.339Z,14.56
2022-07-29T01:35:39.299Z,14.57
2022-07-29T01:38:43.212Z,14.59
2022-07-29T01:42:36.527Z,14.64
2022-07-29T01:51:26.985Z,14.46
2022-07-29T01:57:36.399Z,14.51
2022-07-29T02:01:24.633Z,14.35
2022-07-29T02:10:01.886Z,14.49
2022-07-29T02:13:10.154Z,14.57
2022-07-29T02:16:09.043Z,14.56
2022-07-29T02:18:59.080Z,14.59
2022-07-29T02:21:38.290Z,14.57
2022-07-29T02:24:21.148Z,14.65
2022-07-29T02:27:04.440Z,14.44
2022-07-29T02:30:12.894Z,14.61
2022-07-29T02:32:59.509Z,14.46
2022-07-29T02:35:34.638Z,14.42
2022-07-29T02:38:46.519Z,14.52
2022-07-29T02:42:22.124Z,14.52
2022-07-29T02:49:21.620Z,14.60
2022-07-29T02:52:02.273Z,14.83
2022-07-29T02:55:04.416Z,14.80
2022-07-29T02:58:28.881Z,14.90
2022-07-29T03:01:47.454Z,14.95
2022-07-29T03:04:36.381Z,14.96
2022-07-29T03:07:27.515Z,15.13
2022-07-29T03:10:05.260Z,14.99
2022-07-29T03:12:44.245Z,15.08
2022-07-29T03:15:20.772Z,15.13
2022-07-29T03:18:18.684Z,15.28
2022-07-29T03:21:19.476Z,15.37
2022-07-29T03:25:04.303Z,15.61
2022-07-29T03:35:40.772Z,15.74
2022-07-29T03:38:32.746Z,15.77
2022-07-29T03:41:11.009Z,15.76
2022-07-29T03:43:49.285Z,15.82
2022-07-29T03:46:24.213Z,16.03
2022-07-29T03:49:04.609Z,15.93
2022-07-29T03:51:45.246Z,16.06
2022-07-29T03:54:27.758Z,16.03
2022-07-29T03:57:16.881Z,15.98
2022-07-29T04:00:25.325Z,16.10
2022-07-29T04:07:30.598Z,16.27
2022-07-29T04:10:36.239Z,16.31
2022-07-29T04:16:55.209Z,16.38
2022-07-29T04:19:50.466Z,16.45
2022-07-29T04:22:36.256Z,16.49
2022-07-29T04:25:07.210Z,16.53
2022-07-29T04:27:57.534Z,16.58
2022-07-29T04:30:28.789Z,16.66
2022-07-29T04:33:02.806Z,16.76
2022-07-29T04:35:43.623Z,16.73
2022-07-29T04:38:18.317Z,16.80
2022-07-29T04:40:56.812Z,16.98
2022-07-29T04:43:44.102Z,16.97
2022-07-29T04:46:14.721Z,16.98
2022-07-29T04:52:31.956Z,17.22
2022-07-29T04:55:03.542Z,17.20
2022-07-29T04:57:32.911Z,17.31
2022-07-29T05:00:00.470Z,17.29
2022-07-29T05:02:30.389Z,17.33
2022-07-29T05:04:58.888Z,17.25
2022-07-29T05:07:33.022Z,17.32
2022-07-29T05:10:03.122Z,17.53
2022-07-29T05:12:39.428Z,17.48
2022-07-29T05:15:22.217Z,17.50
2022-07-29T05:23:28.419Z,17.80
2022-07-29T05:26:01.295Z,17.69
2022-07-29T05:28:36.343Z,17.94
2022-07-29T05:31:09.746Z,17.90
2022-07-29T05:33:37.492Z,18.05
2022-07-29T05:36:11.825Z,18.12
2022-07-29T05:38:39.334Z,18.24
2022-07-29T05:41:06.899Z,18.12
2022-07-29T05:43:36.926Z,18.20
2022-07-29T05:46:04.404Z,18.37
2022-07-29T05:48:32.272Z,18.43
2022-07-29T05:51:02.214Z,18.68
2022-07-29T05:54:29.643Z,18.86
2022-07-29T05:57:24.178Z,18.98
2022-07-29T05:59:52.390Z,19.00
2022-07-29T06:02:19.665Z,19.04
2022-07-29T06:04:46.871Z,19.12
2022-07-29T06:07:14.754Z,19.34
2022-07-29T06:09:41.862Z,19.39
2022-07-29T06:12:12.815Z,19.44
2022-07-29T06:14:40.619Z,19.39
2022-07-29T06:17:20.420Z,19.41
2022-07-29T06:20:02.994Z,19.42
2022-07-29T06:22:46.287Z,19.46
2022-07-29T06:29:11.963Z,19.66
2022-07-29T06:31:51.656Z,19.67
2022-07-29T06:34:24.170Z,19.64
2022-07-29T06:36:51.425Z,19.64
2022-07-29T06:39:20.919Z,19.69
2022-07-29T06:41:52.166Z,19.72
2022-07-29T06:44:25.031Z,19.93
2022-07-29T06:47:11.613Z,20.05
2022-07-29T06:49:39.012Z,20.10
2022-07-29T06:52:11.288Z,20.20
2022-07-29T06:54:48.944Z,20.29
2022-07-29T06:57:17.274Z,20.30
2022-07-29T06:59:44.607Z,20.29
2022-07-29T07:02:11.819Z,20.40
2022-07-29T07:04:39.361Z,20.64
2022-07-29T07:12:18.229Z,20.82
2022-07-29T07:14:45.987Z,20.86
2022-07-29T07:17:13.357Z,20.93
2022-07-29T07:19:43.351Z,20.84
2022-07-29T07:22:11.431Z,20.76
2022-07-29T07:24:38.618Z,20.77
2022-07-29T07:27:06.055Z,20.76
2022-07-29T07:29:34.019Z,20.62
2022-07-29T07:32:01.626Z,20.84
2022-07-29T07:34:29.813Z,20.84
2022-07-29T07:37:03.539Z,21.11
2022-07-29T07:39:30.782Z,21.32
2022-07-29T07:41:58.113Z,21.59
2022-07-29T07:44:25.449Z,21.66
2022-07-29T07:46:52.820Z,21.81
2022-07-29T07:49:22.339Z,21.75
2022-07-29T07:51:50.691Z,21.72
2022-07-29T07:55:14.381Z,21.89
2022-07-29T07:58:04.370Z,21.85
2022-07-29T08:00:33.375Z,22.11
2022-07-29T08:03:05.172Z,22.10
2022-07-29T08:05:48.122Z,22.24
2022-07-29T08:08:17.824Z,22.21
2022-07-29T08:11:09.037Z,22.26
2022-07-29T08:31:11.902Z,22.43
2022-07-29T09:37:35.963Z,23.56
2022-07-29T09:45:36.144Z,23.53
2022-07-29T09:48:36.381Z,23.57
2022-07-29T09:54:55.298Z,23.98
2022-07-29T10:04:28.066Z,24.05
2022-07-29T10:07:27.505Z,23.83
2022-07-29T10:19:27.648Z,23.76
2022-07-29T10:21:59.157Z,24.03
2022-07-29T10:29:12.014Z,24.03
2022-07-29T10:32:30.857Z,24.31
2022-07-29T10:35:13.808Z,24.32
2022-07-29T10:42:17.043Z,24.46
2022-07-29T10:46:16.777Z,24.20
2022-07-29T10:58:43.518Z,23.90
2022-07-29T11:11:24.211Z,25.00
2022-07-29T11:19:10.077Z,24.80
2022-07-29T11:21:53.779Z,24.49
2022-07-29T11:29:31.648Z,23.99
2022-07-29T11:37:12.656Z,24.52
2022-07-29T11:49:38.436Z,24.23
2022-07-29T11:52:19.407Z,24.01
2022-07-29T11:54:58.012Z,24.28
2022-07-29T11:58:49.266Z,24.69
2022-07-29T12:01:42.204Z,24.94
2022-07-29T12:04:25.640Z,24.79
2022-07-29T12:07:33.792Z,24.67
2022-07-29T12:10:05.026Z,24.73
2022-07-29T12:12:34.489Z,25.19
2022-07-29T12:15:13.520Z,25.69
2022-07-29T12:21:25.749Z,27.05
2022-07-29T12:24:18.802Z,28.30
2022-07-29T12:27:40.574Z,28.75
2022-07-29T12:31:43.360Z,28.61
2022-07-29T12:35:13.327Z,28.04
2022-07-29T12:37:52.550Z,28.01
2022-07-29T12:40:24.494Z,28.17
2022-07-29T12:43:11.884Z,28.39
2022-07-29T12:45:41.559Z,28.21
2022-07-29T12:48:10.453Z,27.90
2022-07-29T12:50:55.537Z,27.50
2022-07-29T12:53:24.143Z,27.10
2022-07-29T12:59:40.393Z,27.36
2022-07-29T13:02:08.319Z,27.44
2022-07-29T13:04:38.992Z,27.29
2022-07-29T13:07:17.711Z,27.46
2022-07-29T13:14:44.723Z,30.98
2022-07-29T13:17:24.360Z,32.20
2022-07-29T13:20:08.677Z,33.29
2022-07-29T13:22:40.089Z,34.03
2022-07-29T13:25:09.365Z,34.37
2022-07-29T13:28:30.575Z,34.91
2022-07-29T13:31:05.678Z,35.45
2022-07-29T13:33:37.443Z,35.98
2022-07-29T13:36:05.327Z,36.14
2022-07-29T13:38:32.482Z,36.07
2022-07-29T13:50:31.385Z,36.61
2022-07-29T13:56:07.912Z,36.26
2022-07-29T13:57:45.850Z,36.22
2022-07-29T14:01:08.637Z,34.92
2022-07-29T14:03:45.233Z,33.21
2022-07-29T14:06:14.734Z,32.14
2022-07-29T14:08:49.166Z,31.22
2022-07-29T14:11:34.830Z,30.61
2022-07-29T14:14:14.232Z,29.74
2022-07-29T14:16:53.487Z,29.36
2022-07-29T14:23:45.223Z,30.98
2022-07-29T14:26:21.570Z,32.52
2022-07-29T14:34:11.817Z,34.93
2022-07-29T14:37:15.974Z,35.30
2022-07-29T14:56:50.509Z,35.51
2022-07-29T14:59:20.782Z,35.60
2022-07-29T15:01:48.224Z,35.87
2022-07-29T15:04:16.051Z,36.02
2022-07-29T15:06:44.326Z,35.90
2022-07-29T15:09:12.507Z,35.68
2022-07-29T15:11:40.641Z,35.07
2022-07-29T15:14:08.303Z,33.60
2022-07-29T15:16:41.977Z,32.39
2022-07-29T15:19:12.422Z,31.42
2022-07-29T15:21:41.690Z,30.39
2022-07-29T15:24:18.149Z,29.60
2022-07-29T15:26:45.907Z,29.01
2022-07-29T15:29:14.608Z,28.54
2022-07-29T15:31:42.520Z,27.92
2022-07-29T15:34:10.368Z,27.37
2022-07-29T15:36:53.977Z,26.85
2022-07-29T15:39:27.181Z,26.77
2022-07-29T15:41:56.378Z,27.15
2022-07-29T15:44:24.277Z,27.51
2022-07-29T15:47:04.105Z,28.14
2022-07-29T15:49:48.273Z,28.52
2022-07-29T15:52:26.173Z,28.67
2022-07-29T15:54:59.545Z,28.72
2022-07-29T15:57:33.229Z,28.85
2022-07-29T16:00:00.708Z,29.02
2022-07-29T16:02:28.051Z,29.04
2022-07-29T16:04:55.378Z,29.05
2022-07-29T16:07:22.624Z,29.05
2022-07-29T16:09:53.447Z,28.95
2022-07-29T16:12:21.876Z,28.42
2022-07-29T16:14:53.558Z,27.56
2022-07-29T16:17:21.537Z,27.08
2022-07-29T16:19:49.222Z,27.27
2022-07-29T16:22:17.066Z,27.35
2022-07-29T16:24:44.893Z,26.81
2022-07-29T16:27:12.851Z,26.00
2022-07-29T16:29:43.636Z,25.34
2022-07-29T16:32:11.458Z,24.62
2022-07-29T16:34:38.908Z,24.21
2022-07-29T16:37:09.658Z,23.82
2022-07-29T16:39:37.542Z,23.57
2022-07-29T16:42:05.698Z,23.26
2022-07-29T16:44:40.805Z,23.05
2022-07-29T16:47:11.636Z,22.74
2022-07-29T16:49:39.814Z,22.71
2022-07-29T16:52:08.384Z,22.67
2022-07-29T16:54:35.870Z,22.63
2022-07-29T16:57:03.978Z,22.48
2022-07-29T16:59:31.586Z,22.30
2022-07-29T17:02:02.740Z,22.16
2022-07-29T17:04:31.297Z,22.18
2022-07-29T17:07:00.131Z,22.17
2022-07-29T17:09:31.585Z,22.37
2022-07-29T17:12:02.048Z,22.84
2022-07-29T17:14:33.156Z,23.15
2022-07-29T17:17:02.846Z,23.37
2022-07-29T17:19:33.057Z,23.51
2022-07-29T17:22:11.319Z,23.69
2022-07-29T17:24:43.698Z,23.73
2022-07-29T17:27:11.431Z,23.63
2022-07-29T17:29:42.213Z,23.56
2022-07-29T17:32:10.968Z,23.28
2022-07-29T17:34:42.608Z,22.77
2022-07-29T17:37:11.226Z,22.36
2022-07-29T17:39:41.019Z,21.81
2022-07-29T17:42:09.853Z,21.61
2022-07-29T17:44:38.125Z,21.27
2022-07-29T17:47:15.570Z,21.00
2022-07-29T17:49:49.419Z,20.75
2022-07-29T17:52:18.724Z,20.69
2022-07-29T18:01:22.172Z,20.08
2022-07-29T18:03:49.438Z,20.06
2022-07-29T18:06:16.900Z,20.03
2022-07-29T18:08:47.731Z,19.79
2022-07-29T18:11:15.603Z,19.83
2022-07-29T18:13:42.858Z,19.69
2022-07-29T18:16:10.282Z,19.55
2022-07-29T18:18:37.499Z,19.55
2022-07-29T18:21:04.873Z,19.30
2022-07-29T18:23:32.637Z,19.26
2022-07-29T18:25:59.947Z,19.27
2022-07-29T18:28:27.160Z,19.15
2022-07-29T18:30:54.352Z,19.02
2022-07-29T18:33:22.631Z,18.91
2022-07-29T18:36:07.688Z,18.91
2022-07-29T18:38:52.519Z,18.73
2022-07-29T18:41:19.744Z,18.65
2022-07-29T18:43:49.956Z,18.64
2022-07-29T18:46:17.791Z,18.53
2022-07-29T18:48:48.040Z,18.51
2022-07-29T18:51:57.337Z,18.55
2022-07-29T18:54:28.710Z,18.41
2022-07-29T18:56:56.518Z,18.32
2022-07-29T18:59:24.053Z,18.32
2022-07-29T19:01:51.504Z,18.26
2022-07-29T19:04:22.261Z,18.10
2022-07-29T19:06:49.454Z,18.15
2022-07-29T19:09:17.444Z,18.24
2022-07-29T19:11:45.005Z,18.13
2022-07-29T19:14:13.533Z,18.22
2022-07-29T19:16:40.794Z,18.16
2022-07-29T19:19:08.196Z,18.16
2022-07-29T19:21:36.159Z,18.02
2022-07-29T19:24:09.246Z,18.14
2022-07-29T19:31:23.210Z,17.94
2022-07-29T19:34:35.862Z,18.04
2022-07-29T19:46:21.159Z,17.69
2022-07-29T19:49:03.182Z,17.73
2022-07-29T19:51:33.671Z,17.65
2022-07-29T19:54:05.124Z,17.62
2022-07-29T20:04:31.842Z,17.70
2022-07-29T20:07:42.098Z,17.68
2022-07-29T20:10:16.148Z,17.53
2022-07-29T20:12:43.550Z,17.47
2022-07-29T20:15:31.463Z,17.61
2022-07-29T20:17:59.191Z,17.40
2022-07-29T20:20:32.930Z,17.39
2022-07-29T20:23:34.133Z,17.30
2022-07-29T20:30:04.683Z,17.51
2022-07-29T20:32:41.432Z,17.30
2022-07-29T20:39:14.090Z,17.29
2022-07-29T20:42:08.258Z,17.38
2022-07-29T20:44:36.527Z,17.34
2022-07-29T20:47:04.097Z,17.15
2022-07-29T20:49:38.996Z,17.09
2022-07-29T20:52:06.795Z,17.17
2022-07-29T20:54:34.724Z,17.17
2022-07-29T20:57:39.079Z,17.11
2022-07-29T21:00:14.866Z,17.06
2022-07-29T21:02:53.054Z,17.04
2022-07-29T21:09:36.678Z,16.88
2022-07-29T21:12:05.186Z,16.89
2022-07-29T21:14:37.278Z,16.85
2022-07-29T21:17:13.789Z,16.80
2022-07-29T21:20:08.981Z,16.80
2022-07-29T21:22:43.215Z,16.60
2022-07-29T21:25:31.370Z,16.60
2022-07-29T21:28:34.761Z,16.60
2022-07-29T21:32:08.398Z,16.62
2022-07-29T21:43:24.800Z,16.24
2022-07-29T21:46:43.378Z,16.42
2022-07-29T21:50:05.238Z,16.37
2022-07-29T21:52:37.784Z,16.15
2022-07-29T21:55:38.809Z,16.16
2022-07-29T21:58:41.190Z,16.01
2022-07-29T22:01:10.775Z,16.07
2022-07-29T22:03:39.206Z,16.01
2022-07-29T22:06:06.960Z,15.95
2022-07-29T22:09:10.134Z,16.00
2022-07-29T22:11:48.139Z,15.79
2022-07-29T22:14:21.287Z,15.87
2022-07-29T22:17:56.829Z,15.79
2022-07-29T22:20:27.609Z,15.62
2022-07-29T22:22:55.167Z,15.69
2022-07-29T22:25:23.020Z,15.70
2022-07-29T22:27:50.251Z,15.73
2022-07-29T22:30:18.108Z,15.54
2022-07-29T22:32:45.442Z,15.54
2022-07-29T22:35:12.837Z,15.58
2022-07-29T22:37:40.476Z,15.53
2022-07-29T22:40:08.284Z,15.55
2022-07-29T22:42:40.771Z,15.28
2022-07-29T22:45:10.041Z,15.38
2022-07-29T22:47:48.112Z,15.34
2022-07-29T22:50:17.288Z,15.33
2022-07-29T22:52:45.913Z,15.28
2022-07-29T22:55:13.970Z,15.11
2022-07-29T23:02:02.550Z,15.25
2022-07-29T23:04:37.324Z,15.13
2022-07-29T23:10:52.835Z,14.99
2022-07-29T23:13:20.323Z,15.04
2022-07-29T23:15:56.902Z,15.00
2022-07-29T23:18:43.807Z,15.00
2022-07-29T23:24:55.426Z,14.81
2022-07-29T23:27:22.860Z,14.73
2022-07-29T23:29:50.467Z,14.92
2022-07-29T23:32:42.725Z,14.90
2022-07-29T23:35:10.385Z,14.78
2022-07-29T23:41:31.248Z,14.65
2022-07-29T23:44:07.452Z,14.61
2022-07-29T23:51:43.407Z,14.72
